createdAt,value
2023-01-10T00:04:23.993Z,54.56
2023-01-10T00:09:25.679Z,54.96
2023-01-10T00:14:29.172Z,54.63
2023-01-10T00:19:31.231Z,55.60
2023-01-10T00:24:32.933Z,54.69
2023-01-10T00:29:35.377Z,56.04
2023-01-10T00:34:37.089Z,53.53
2023-01-10T00:39:38.822Z,54.96
2023-01-10T00:44:40.524Z,52.95
2023-01-10T00:49:42.328Z,53.60
2023-01-10T00:54:43.946Z,52.56
2023-01-10T00:59:45.662Z,52.75
2023-01-10T01:04:47.334Z,52.70
2023-01-10T01:10:07.542Z,53.06
2023-01-10T01:15:09.555Z,53.64
2023-01-10T01:20:11.674Z,53.42
2023-01-10T01:25:13.956Z,53.80
2023-01-10T01:30:15.784Z,53.22
2023-01-10T01:35:17.845Z,53.81
2023-01-10T01:40:21.834Z,54.06
2023-01-10T01:45:23.338Z,53.18
2023-01-10T01:50:32.571Z,52.00
2023-01-10T01:55:35.765Z,52.01
2023-01-10T02:00:37.363Z,52.28
2023-01-10T02:05:42.454Z,51.56
2023-01-10T02:10:52.809Z,50.43
2023-01-10T02:15:54.625Z,51.45
2023-01-10T02:21:38.079Z,51.55
2023-01-10T02:26:49.085Z,51.61
2023-01-10T02:32:09.267Z,51.32
2023-01-10T02:37:30.371Z,51.37
2023-01-10T02:43:05.918Z,52.65
2023-01-10T02:48:07.879Z,54.19
2023-01-10T02:53:23.156Z,52.51
2023-01-10T02:58:24.688Z,52.23
2023-01-10T03:03:33.300Z,51.72
2023-01-10T03:08:58.389Z,49.67
2023-01-10T03:14:02.859Z,51.99
2023-01-10T03:19:11.612Z,52.00
2023-01-10T03:24:17.484Z,50.72
2023-01-10T03:29:44.451Z,51.43
2023-01-10T03:34:46.317Z,51.73
2023-01-10T03:39:59.184Z,51.31
2023-01-10T03:45:13.593Z,50.61
2023-01-10T03:50:25.652Z,50.08
2023-01-10T03:55:29.438Z,51.59
2023-01-10T04:00:31.902Z,52.00
2023-01-10T04:05:33.540Z,49.46
2023-01-10T04:10:35.317Z,48.32
2023-01-10T04:15:37.026Z,49.80
2023-01-10T04:20:38.677Z,51.98
2023-01-10T04:25:40.268Z,51.87
2023-01-10T04:30:41.910Z,50.99
2023-01-10T04:35:52.558Z,50.97
2023-01-10T04:40:56.688Z,51.08
2023-01-10T04:45:58.561Z,49.45
2023-01-10T04:51:00.253Z,50.35
2023-01-10T04:56:06.550Z,52.61
2023-01-10T05:01:12.718Z,50.11
2023-01-10T05:06:14.526Z,53.88
2023-01-10T05:11:16.228Z,53.33
2023-01-10T05:16:18.310Z,53.09
2023-01-10T05:21:19.971Z,52.12
2023-01-10T05:26:23.755Z,51.88
2023-01-10T05:31:25.448Z,50.94
2023-01-10T05:36:27.056Z,52.41
2023-01-10T05:41:28.636Z,53.08
2023-01-10T05:46:30.230Z,51.73
2023-01-10T05:51:32.009Z,51.51
2023-01-10T05:56:33.651Z,52.04
2023-01-10T06:01:35.297Z,50.39
2023-01-10T06:06:37.085Z,50.27
2023-01-10T06:11:39.038Z,52.20
2023-01-10T06:16:41.822Z,49.66
2023-01-10T06:21:43.425Z,49.89
2023-01-10T06:26:45.124Z,52.06
2023-01-10T06:31:46.799Z,51.58
2023-01-10T06:36:48.394Z,50.97
2023-01-10T06:41:49.996Z,52.51
2023-01-10T06:46:51.950Z,49.61
2023-01-10T06:51:53.645Z,51.39
2023-01-10T06:56:55.282Z,49.82
2023-01-10T07:01:56.935Z,52.19
2023-01-10T07:06:58.649Z,50.56
2023-01-10T07:12:00.293Z,50.47
2023-01-10T07:17:01.941Z,49.70
2023-01-10T07:22:03.647Z,50.68
2023-01-10T07:27:05.322Z,49.93
2023-01-10T07:32:07.037Z,49.03
2023-01-10T07:37:08.946Z,50.47
2023-01-10T07:42:10.613Z,51.10
2023-01-10T07:47:12.250Z,51.26
2023-01-10T07:52:13.866Z,49.29
2023-01-10T07:57:15.756Z,51.57
2023-01-10T08:02:17.460Z,52.05
2023-01-10T08:07:19.134Z,50.88
2023-01-10T08:12:21.920Z,51.28
2023-01-10T08:17:23.514Z,51.06
2023-01-10T08:22:25.205Z,51.89
2023-01-10T08:27:26.811Z,52.02
2023-01-10T08:32:28.451Z,51.09
2023-01-10T08:37:30.153Z,52.00
2023-01-10T08:42:31.857Z,52.11
2023-01-10T08:47:35.836Z,50.92
2023-01-10T08:52:37.541Z,51.00
2023-01-10T08:57:39.149Z,49.87
2023-01-10T09:02:41.379Z,54.01
2023-01-10T09:07:43.058Z,49.79
2023-01-10T09:12:56.687Z,49.76
2023-01-10T09:18:00.695Z,50.40
2023-01-10T09:23:17.750Z,50.58
2023-01-10T09:28:20.844Z,49.77
2023-01-10T09:33:22.584Z,49.60
2023-01-10T09:38:24.485Z,50.87
2023-01-10T09:43:50.873Z,48.47
2023-01-10T09:48:55.177Z,49.66
2023-01-10T09:54:11.143Z,49.14
2023-01-10T09:59:21.170Z,50.54
2023-01-10T10:04:37.331Z,50.47
2023-01-10T10:09:39.119Z,50.76
2023-01-10T10:14:59.270Z,50.45
2023-01-10T10:20:34.917Z,50.30
2023-01-10T10:25:42.385Z,50.19
2023-01-10T10:31:09.253Z,50.11
2023-01-10T10:36:30.817Z,50.29
2023-01-10T10:41:37.284Z,49.47
2023-01-10T10:46:39.114Z,50.06
2023-01-10T10:51:51.142Z,50.09
2023-01-10T10:56:56.177Z,49.46
2023-01-10T11:06:21.416Z,57.98
2023-01-10T11:11:35.645Z,57.61
2023-01-10T11:16:40.008Z,57.09
2023-01-10T11:21:45.388Z,57.77
2023-01-10T11:26:48.025Z,55.26
2023-01-10T11:31:50.864Z,55.53
2023-01-10T11:37:21.655Z,55.18
2023-01-10T11:42:33.040Z,55.98
2023-01-10T11:47:41.680Z,55.60
2023-01-10T11:52:48.566Z,55.06
2023-01-10T11:57:59.032Z,53.41
2023-01-10T12:03:01.519Z,53.60
2023-01-10T12:08:10.608Z,54.10
2023-01-10T12:13:17.143Z,53.29
2023-01-10T12:18:19.665Z,51.77
2023-01-10T12:23:25.329Z,52.46
2023-01-10T12:28:30.198Z,51.18
2023-01-10T12:33:40.403Z,51.10
2023-01-10T12:39:06.483Z,50.00
2023-01-10T12:44:20.033Z,49.47
2023-01-10T12:49:29.691Z,50.02
2023-01-10T12:54:31.695Z,49.54
2023-01-10T12:59:41.326Z,49.23
2023-01-10T13:04:47.155Z,49.08
2023-01-10T13:09:50.182Z,49.16
2023-01-10T13:15:01.490Z,49.48
2023-01-10T13:20:21.450Z,47.96
2023-01-10T13:25:35.111Z,48.61
2023-01-10T13:30:43.292Z,48.17
2023-01-10T13:35:45.232Z,49.43
2023-01-10T13:41:06.684Z,48.35
2023-01-10T13:46:17.435Z,48.42
2023-01-10T13:51:23.201Z,48.13
2023-01-10T13:56:36.719Z,46.86
2023-01-10T14:01:57.478Z,47.29
2023-01-10T14:07:02.923Z,46.01
2023-01-10T14:12:08.949Z,46.68
2023-01-10T14:17:21.101Z,46.78
2023-01-10T14:22:35.241Z,47.16
2023-01-10T14:27:45.076Z,47.52
2023-01-10T14:32:53.050Z,47.26
2023-01-10T14:37:59.934Z,47.60
2023-01-10T14:43:06.353Z,45.80
2023-01-10T14:48:29.344Z,45.88
2023-01-10T14:53:30.975Z,45.17
2023-01-10T14:58:32.552Z,46.40
2023-01-10T15:03:34.118Z,49.20
2023-01-10T15:08:35.891Z,48.76
2023-01-10T15:13:53.661Z,50.05
2023-01-10T15:18:56.695Z,48.21
2023-01-10T15:23:58.316Z,49.05
2023-01-10T15:29:24.984Z,49.76
2023-01-10T15:34:29.845Z,49.30
2023-01-10T15:39:38.173Z,48.59
2023-01-10T15:44:52.394Z,48.84
2023-01-10T15:49:54.452Z,48.65
2023-01-10T15:54:57.073Z,48.57
2023-01-10T16:00:00.188Z,48.25
2023-01-10T16:05:14.780Z,48.15
2023-01-10T16:10:25.987Z,47.27
2023-01-10T16:15:30.459Z,47.43
2023-01-10T16:20:36.514Z,47.42
2023-01-10T16:25:39.547Z,48.73
2023-01-10T16:30:45.258Z,47.19
2023-01-10T16:35:48.646Z,46.87
2023-01-10T16:40:55.226Z,47.63
2023-01-10T16:46:00.354Z,45.71
2023-01-10T16:51:22.856Z,47.30
2023-01-10T16:56:26.807Z,48.63
2023-01-10T17:01:37.720Z,47.91
2023-01-10T17:06:41.319Z,46.92
2023-01-10T17:11:43.230Z,47.75
2023-01-10T17:16:44.866Z,47.33
2023-01-10T17:21:47.059Z,48.92
2023-01-10T17:26:48.794Z,47.60
2023-01-10T17:31:50.712Z,47.35
2023-01-10T17:36:52.385Z,48.21
2023-01-10T17:41:54.018Z,50.16
2023-01-10T17:46:57.081Z,49.01
2023-01-10T17:51:58.949Z,50.06
2023-01-10T17:57:01.590Z,49.97
2023-01-10T18:02:03.557Z,50.03
2023-01-10T18:07:05.282Z,50.50
2023-01-10T18:12:07.385Z,50.96
2023-01-10T18:17:11.500Z,50.20
2023-01-10T18:22:31.693Z,49.39
2023-01-10T18:27:33.439Z,48.35
2023-01-10T18:32:35.186Z,50.63
2023-01-10T18:37:36.829Z,48.78
2023-01-10T18:42:38.979Z,49.01
2023-01-10T18:47:40.715Z,49.12
2023-01-10T18:52:42.351Z,47.83
2023-01-10T18:57:44.015Z,47.87
2023-01-10T19:02:46.437Z,48.83
2023-01-10T19:07:48.202Z,49.03
2023-01-10T19:12:49.866Z,48.18
2023-01-10T19:17:51.559Z,47.75
2023-01-10T19:22:53.214Z,46.57
2023-01-10T19:27:54.895Z,46.71
2023-01-10T19:32:57.554Z,46.89
2023-01-10T19:37:59.293Z,46.25
2023-01-10T19:43:01.983Z,49.27
2023-01-10T19:48:03.908Z,48.69
2023-01-10T19:53:05.575Z,50.94
2023-01-10T19:58:07.484Z,49.51
2023-01-10T20:03:09.246Z,48.16
2023-01-10T20:08:11.044Z,49.87
2023-01-10T20:13:12.742Z,48.48
2023-01-10T20:18:14.397Z,49.88
2023-01-10T20:23:17.725Z,50.78
2023-01-10T20:28:19.389Z,50.23
2023-01-10T20:33:21.985Z,51.77
2023-01-10T20:38:24.523Z,49.08
2023-01-10T20:43:26.696Z,52.62
2023-01-10T20:48:29.469Z,50.53
2023-01-10T20:53:31.574Z,49.31
2023-01-10T20:58:35.105Z,48.92
2023-01-10T21:03:38.030Z,49.88
2023-01-10T21:08:40.135Z,48.82
2023-01-10T21:13:42.158Z,50.38
2023-01-10T21:18:46.630Z,48.21
2023-01-10T21:23:48.907Z,47.58
2023-01-10T21:28:50.607Z,48.68
2023-01-10T21:33:54.163Z,47.76
2023-01-10T21:38:55.893Z,49.96
2023-01-10T21:43:57.632Z,49.30
2023-01-10T21:49:00.415Z,48.18
2023-01-10T21:54:02.072Z,47.30
2023-01-10T21:59:03.734Z,48.90
2023-01-10T22:04:05.461Z,47.67
2023-01-10T22:09:07.182Z,47.34
2023-01-10T22:14:11.114Z,48.45
2023-01-10T22:19:13.553Z,48.54
2023-01-10T22:24:15.284Z,48.86
2023-01-10T22:29:16.890Z,48.42
2023-01-10T22:34:18.566Z,46.98
2023-01-10T22:39:20.157Z,46.90
2023-01-10T22:44:26.611Z,48.08
2023-01-10T22:49:28.447Z,47.86
2023-01-10T22:54:30.217Z,48.44
2023-01-10T22:59:33.322Z,47.85
2023-01-10T23:04:35.010Z,47.14
2023-01-10T23:09:36.673Z,47.48
2023-01-10T23:14:38.268Z,47.72
2023-01-10T23:19:39.847Z,46.23
2023-01-10T23:24:41.631Z,49.59
2023-01-10T23:29:43.300Z,48.44
2023-01-10T23:34:44.928Z,47.21
2023-01-10T23:39:46.585Z,49.25
2023-01-10T23:44:48.259Z,48.40
2023-01-10T23:49:49.810Z,47.92
2023-01-10T23:54:51.460Z,49.76
2023-01-10T23:59:53.115Z,47.63
